sensor_id;sensor_type;location;lat;lon;timestamp;pressure;altitude;pressure_sealevel;temperature;humidity
15382;BME280;7789;51.364;12.358;2023-07-22T00:00:08;99994.91;;;17.05;100.00
15382;BME280;7789;51.364;12.358;2023-07-22T00:05:17;99987.22;;;16.96;100.00
15382;BME280;7789;51.364;12.358;2023-07-22T00:10:31;100003.09;;;16.88;100.00
15382;BME280;7789;51.364;12.358;2023-07-22T00:15:38;100007.78;;;16.78;100.00
15382;BME280;7789;51.364;12.358;2023-07-22T00:20:44;100004.81;;;16.73;100.00
15382;BME280;7789;51.364;12.358;2023-07-22T00:25:50;100007.53;;;16.65;100.00
15382;BME280;7789;51.364;12.358;2023-07-22T00:30:57;100006.41;;;16.60;100.00
15382;BME280;7789;51.364;12.358;2023-07-22T00:36:07;100014.66;;;16.57;100.00
15382;BME280;7789;51.364;12.358;2023-07-22T00:41:14;100009.09;;;16.52;100.00
15382;BME280;7789;51.364;12.358;2023-07-22T00:46:22;100018.50;;;16.46;100.00
15382;BME280;7789;51.364;12.358;2023-07-22T00:51:27;100011.91;;;16.42;100.00
15382;BME280;7789;51.364;12.358;2023-07-22T00:56:37;100021.00;;;16.40;100.00
15382;BME280;7789;51.364;12.358;2023-07-22T01:01:42;100020.19;;;16.31;100.00
15382;BME280;7789;51.364;12.358;2023-07-22T01:06:49;100020.84;;;16.25;100.00
15382;BME280;7789;51.364;12.358;2023-07-22T01:11:59;100011.97;;;16.18;100.00
15382;BME280;7789;51.364;12.358;2023-07-22T01:17:08;100014.31;;;16.13;100.00
15382;BME280;7789;51.364;12.358;2023-07-22T01:22:16;100015.94;;;16.06;100.00
15382;BME280;7789;51.364;12.358;2023-07-22T01:27:27;100015.47;;;16.03;100.00
15382;BME280;7789;51.364;12.358;2023-07-22T01:32:33;100011.03;;;16.03;100.00
15382;BME280;7789;51.364;12.358;2023-07-22T01:37:39;100014.50;;;16.04;100.00
15382;BME280;7789;51.364;12.358;2023-07-22T01:42:48;100024.03;;;16.05;100.00
15382;BME280;7789;51.364;12.358;2023-07-22T01:47:51;100032.59;;;16.07;100.00
15382;BME280;7789;51.364;12.358;2023-07-22T01:52:58;100031.78;;;16.06;100.00
15382;BME280;7789;51.364;12.358;2023-07-22T01:58:10;100040.34;;;16.08;100.00
15382;BME280;7789;51.364;12.358;2023-07-22T02:03:16;100043.16;;;16.07;100.00
15382;BME280;7789;51.364;12.358;2023-07-22T02:08:22;100046.28;;;16.02;100.00
15382;BME280;7789;51.364;12.358;2023-07-22T02:13:29;100055.03;;;15.95;100.00
15382;BME280;7789;51.364;12.358;2023-07-22T02:18:37;100052.25;;;15.88;100.00
15382;BME280;7789;51.364;12.358;2023-07-22T02:23:51;100057.19;;;15.83;100.00
15382;BME280;7789;51.364;12.358;2023-07-22T02:29:02;100062.78;;;15.88;100.00
15382;BME280;7789;51.364;12.358;2023-07-22T02:34:11;100061.97;;;15.96;100.00
15382;BME280;7789;51.364;12.358;2023-07-22T02:39:17;100066.59;;;16.02;100.00
15382;BME280;7789;51.364;12.358;2023-07-22T02:44:23;100077.13;;;16.02;100.00
15382;BME280;7789;51.364;12.358;2023-07-22T02:49:28;100076.28;;;16.01;100.00
15382;BME280;7789;51.364;12.358;2023-07-22T02:54:40;100086.16;;;16.07;100.00
15382;BME280;7789;51.364;12.358;2023-07-22T02:59:51;100084.03;;;16.11;100.00
15382;BME280;7789;51.364;12.358;2023-07-22T03:05:00;100078.25;;;16.15;100.00
15382;BME280;7789;51.364;12.358;2023-07-22T03:10:09;100084.03;;;16.19;100.00
15382;BME280;7789;51.364;12.358;2023-07-22T03:15:30;100083.84;;;16.20;100.00
15382;BME280;7789;51.364;12.358;2023-07-22T03:20:36;100087.66;;;16.10;100.00
15382;BME280;7789;51.364;12.358;2023-07-22T03:25:41;100082.38;;;16.10;100.00
15382;BME280;7789;51.364;12.358;2023-07-22T03:30:50;100080.72;;;16.09;100.00
15382;BME280;7789;51.364;12.358;2023-07-22T03:35:56;100104.13;;;16.12;100.00
15382;BME280;7789;51.364;12.358;2023-07-22T03:41:07;100106.63;;;16.13;100.00
15382;BME280;7789;51.364;12.358;2023-07-22T03:46:20;100116.81;;;16.16;100.00
15382;BME280;7789;51.364;12.358;2023-07-22T03:51:29;100123.44;;;16.12;100.00
15382;BME280;7789;51.364;12.358;2023-07-22T03:56:35;100113.88;;;16.03;100.00
15382;BME280;7789;51.364;12.358;2023-07-22T04:01:44;100113.38;;;16.00;100.00
15382;BME280;7789;51.364;12.358;2023-07-22T04:06:51;100122.44;;;15.97;100.00
15382;BME280;7789;51.364;12.358;2023-07-22T04:11:57;100122.44;;;15.97;100.00
15382;BME280;7789;51.364;12.358;2023-07-22T04:17:05;100124.91;;;15.99;100.00
15382;BME280;7789;51.364;12.358;2023-07-22T04:22:11;100126.41;;;16.01;100.00
15382;BME280;7789;51.364;12.358;2023-07-22T04:27:19;100131.34;;;16.04;100.00
15382;BME280;7789;51.364;12.358;2023-07-22T04:32:29;100133.34;;;16.10;100.00
15382;BME280;7789;51.364;12.358;2023-07-22T04:37:34;100149.28;;;16.17;100.00
15382;BME280;7789;51.364;12.358;2023-07-22T04:42:43;100147.47;;;16.25;100.00
15382;BME280;7789;51.364;12.358;2023-07-22T04:47:52;100156.72;;;16.37;100.00
15382;BME280;7789;51.364;12.358;2023-07-22T04:53:00;100151.59;;;16.52;100.00
15382;BME280;7789;51.364;12.358;2023-07-22T04:58:04;100156.66;;;16.69;100.00
15382;BME280;7789;51.364;12.358;2023-07-22T05:03:13;100161.63;;;17.10;100.00
15382;BME280;7789;51.364;12.358;2023-07-22T05:08:18;100157.34;;;18.95;100.00
15382;BME280;7789;51.364;12.358;2023-07-22T05:13:25;100164.75;;;21.22;100.00
15382;BME280;7789;51.364;12.358;2023-07-22T05:18:39;100165.53;;;22.99;89.54
15382;BME280;7789;51.364;12.358;2023-07-22T05:23:45;100164.41;;;24.57;83.36
15382;BME280;7789;51.364;12.358;2023-07-22T05:28:51;100155.94;;;26.08;72.78
15382;BME280;7789;51.364;12.358;2023-07-22T05:33:59;100169.25;;;27.57;65.23
15382;BME280;7789;51.364;12.358;2023-07-22T05:39:04;100165.03;;;28.88;59.56
15382;BME280;7789;51.364;12.358;2023-07-22T05:44:08;100156.06;;;30.21;54.10
15382;BME280;7789;51.364;12.358;2023-07-22T05:49:15;100170.63;;;31.44;48.43
15382;BME280;7789;51.364;12.358;2023-07-22T05:54:21;100174.88;;;32.52;44.94
15382;BME280;7789;51.364;12.358;2023-07-22T05:59:30;100184.56;;;33.61;41.91
15382;BME280;7789;51.364;12.358;2023-07-22T06:04:40;100176.06;;;34.21;38.94
15382;BME280;7789;51.364;12.358;2023-07-22T06:09:44;100184.75;;;35.08;37.88
15382;BME280;7789;51.364;12.358;2023-07-22T06:14:53;100182.03;;;35.73;37.29
15382;BME280;7789;51.364;12.358;2023-07-22T06:20:00;100185.91;;;36.04;34.66
15382;BME280;7789;51.364;12.358;2023-07-22T06:25:05;100182.66;;;36.71;34.89
15382;BME280;7789;51.364;12.358;2023-07-22T06:30:12;100191.97;;;37.11;33.14
15382;BME280;7789;51.364;12.358;2023-07-22T06:35:19;100190.66;;;36.95;31.74
15382;BME280;7789;51.364;12.358;2023-07-22T06:40:33;100184.16;;;34.59;34.53
15382;BME280;7789;51.364;12.358;2023-07-22T06:45:41;100185.19;;;33.48;36.74
15382;BME280;7789;51.364;12.358;2023-07-22T06:50:51;100182.59;;;33.08;36.39
15382;BME280;7789;51.364;12.358;2023-07-22T06:55:57;100192.44;;;32.59;37.89
15382;BME280;7789;51.364;12.358;2023-07-22T07:01:03;100194.63;;;32.32;39.19
15382;BME280;7789;51.364;12.358;2023-07-22T07:06:11;100188.19;;;31.47;38.95
15382;BME280;7789;51.364;12.358;2023-07-22T07:11:16;100194.09;;;30.87;39.66
15382;BME280;7789;51.364;12.358;2023-07-22T07:16:22;100204.72;;;31.55;38.20
15382;BME280;7789;51.364;12.358;2023-07-22T07:21:31;100196.44;;;31.15;37.34
15382;BME280;7789;51.364;12.358;2023-07-22T07:26:37;100213.28;;;29.97;39.92
15382;BME280;7789;51.364;12.358;2023-07-22T07:31:44;100208.28;;;30.05;40.91
15382;BME280;7789;51.364;12.358;2023-07-22T07:36:57;100217.81;;;30.76;39.04
15382;BME280;7789;51.364;12.358;2023-07-22T07:42:03;100217.84;;;30.49;38.90
15382;BME280;7789;51.364;12.358;2023-07-22T07:47:08;100213.72;;;30.73;38.05
15382;BME280;7789;51.364;12.358;2023-07-22T07:52:16;100220.63;;;30.01;39.07
15382;BME280;7789;51.364;12.358;2023-07-22T07:57:21;100222.81;;;29.56;40.69
15382;BME280;7789;51.364;12.358;2023-07-22T08:02:28;100225.47;;;29.13;37.67
15382;BME280;7789;51.364;12.358;2023-07-22T08:07:35;100231.47;;;29.58;37.64
15382;BME280;7789;51.364;12.358;2023-07-22T08:12:41;100221.84;;;29.24;37.57
15382;BME280;7789;51.364;12.358;2023-07-22T08:17:56;100233.81;;;28.79;37.87
15382;BME280;7789;51.364;12.358;2023-07-22T08:23:07;100234.94;;;29.54;36.33
15382;BME280;7789;51.364;12.358;2023-07-22T08:28:12;100229.25;;;28.63;37.40
15382;BME280;7789;51.364;12.358;2023-07-22T08:33:19;100234.03;;;28.12;39.65
15382;BME280;7789;51.364;12.358;2023-07-22T08:38:43;100231.50;;;28.22;40.01
15382;BME280;7789;51.364;12.358;2023-07-22T08:43:51;100227.59;;;27.85;39.96
15382;BME280;7789;51.364;12.358;2023-07-22T08:48:56;100222.84;;;27.75;40.88
15382;BME280;7789;51.364;12.358;2023-07-22T08:54:06;100218.78;;;27.61;40.03
15382;BME280;7789;51.364;12.358;2023-07-22T08:59:14;100222.84;;;27.24;42.01
15382;BME280;7789;51.364;12.358;2023-07-22T09:04:20;100228.00;;;26.80;41.38
15382;BME280;7789;51.364;12.358;2023-07-22T09:09:27;100228.09;;;26.62;41.80
15382;BME280;7789;51.364;12.358;2023-07-22T09:14:34;100231.66;;;26.45;42.34
15382;BME280;7789;51.364;12.358;2023-07-22T09:19:41;100226.63;;;26.25;41.86
15382;BME280;7789;51.364;12.358;2023-07-22T09:24:48;100224.69;;;26.03;42.78
15382;BME280;7789;51.364;12.358;2023-07-22T09:29:55;100226.94;;;26.17;42.22
15382;BME280;7789;51.364;12.358;2023-07-22T09:35:03;100222.56;;;25.93;42.83
15382;BME280;7789;51.364;12.358;2023-07-22T09:40:29;100228.03;;;25.98;43.38
15382;BME280;7789;51.364;12.358;2023-07-22T09:45:36;100219.97;;;25.87;43.54
15382;BME280;7789;51.364;12.358;2023-07-22T09:50:41;100228.16;;;25.74;43.24
15382;BME280;7789;51.364;12.358;2023-07-22T09:55:52;100209.69;;;25.84;43.16
15382;BME280;7789;51.364;12.358;2023-07-22T10:00:59;100206.56;;;25.87;44.28
15382;BME280;7789;51.364;12.358;2023-07-22T10:06:06;100195.63;;;25.70;43.38
15382;BME280;7789;51.364;12.358;2023-07-22T10:11:15;100209.03;;;25.70;44.90
15382;BME280;7789;51.364;12.358;2023-07-22T10:16:22;100201.34;;;25.74;44.35
15382;BME280;7789;51.364;12.358;2023-07-22T10:21:30;100206.38;;;25.52;43.76
15382;BME280;7789;51.364;12.358;2023-07-22T10:26:40;100211.41;;;25.31;44.55
15382;BME280;7789;51.364;12.358;2023-07-22T10:31:49;100197.75;;;25.50;44.67
15382;BME280;7789;51.364;12.358;2023-07-22T10:36:56;100198.72;;;25.56;44.22
15382;BME280;7789;51.364;12.358;2023-07-22T10:42:04;100199.13;;;25.41;43.98
15382;BME280;7789;51.364;12.358;2023-07-22T10:47:31;100192.06;;;25.47;43.94
15382;BME280;7789;51.364;12.358;2023-07-22T10:52:44;100191.78;;;25.66;43.03
15382;BME280;7789;51.364;12.358;2023-07-22T10:57:54;100196.78;;;25.63;43.97
15382;BME280;7789;51.364;12.358;2023-07-22T11:03:12;100189.13;;;25.78;43.15
15382;BME280;7789;51.364;12.358;2023-07-22T11:08:36;100182.25;;;25.88;42.53
15382;BME280;7789;51.364;12.358;2023-07-22T11:13:43;100173.22;;;25.83;42.57
15382;BME280;7789;51.364;12.358;2023-07-22T11:18:49;100175.38;;;25.92;43.00
15382;BME280;7789;51.364;12.358;2023-07-22T11:23:54;100165.16;;;26.12;41.97
15382;BME280;7789;51.364;12.358;2023-07-22T11:29:04;100176.72;;;26.24;41.34
15382;BME280;7789;51.364;12.358;2023-07-22T11:34:10;100167.97;;;26.29;41.99
15382;BME280;7789;51.364;12.358;2023-07-22T11:39:16;100154.44;;;26.35;41.08
15382;BME280;7789;51.364;12.358;2023-07-22T11:44:27;100145.34;;;26.36;41.16
15382;BME280;7789;51.364;12.358;2023-07-22T11:49:33;100156.91;;;26.14;41.24
15382;BME280;7789;51.364;12.358;2023-07-22T11:54:40;100146.72;;;26.04;41.96
15382;BME280;7789;51.364;12.358;2023-07-22T11:59:48;100149.84;;;25.90;41.29
15382;BME280;7789;51.364;12.358;2023-07-22T12:04:56;100147.97;;;25.90;41.84
15382;BME280;7789;51.364;12.358;2023-07-22T12:10:07;100149.06;;;26.01;41.69
15382;BME280;7789;51.364;12.358;2023-07-22T12:15:19;100152.22;;;26.09;41.42
15382;BME280;7789;51.364;12.358;2023-07-22T12:20:26;100152.81;;;26.11;42.07
15382;BME280;7789;51.364;12.358;2023-07-22T12:25:33;100152.56;;;26.13;41.59
15382;BME280;7789;51.364;12.358;2023-07-22T12:30:40;100147.66;;;26.10;40.89
15382;BME280;7789;51.364;12.358;2023-07-22T12:35:45;100147.66;;;26.10;40.45
15382;BME280;7789;51.364;12.358;2023-07-22T12:40:50;100140.34;;;26.17;41.03
15382;BME280;7789;51.364;12.358;2023-07-22T12:46:04;100135.31;;;26.20;41.13
15382;BME280;7789;51.364;12.358;2023-07-22T12:51:15;100143.50;;;26.14;42.00
15382;BME280;7789;51.364;12.358;2023-07-22T12:56:23;100141.13;;;26.06;41.32
15382;BME280;7789;51.364;12.358;2023-07-22T13:01:31;100125.72;;;26.01;40.55
15382;BME280;7789;51.364;12.358;2023-07-22T13:06:47;100125.16;;;25.99;40.56
15382;BME280;7789;51.364;12.358;2023-07-22T13:12:02;100129.81;;;25.92;40.67
15382;BME280;7789;51.364;12.358;2023-07-22T13:17:19;100122.84;;;26.03;41.40
15382;BME280;7789;51.364;12.358;2023-07-22T13:22:27;100107.69;;;26.20;40.21
15382;BME280;7789;51.364;12.358;2023-07-22T13:27:41;100100.13;;;26.28;40.48
15382;BME280;7789;51.364;12.358;2023-07-22T13:32:56;100102.13;;;26.33;40.28
15382;BME280;7789;51.364;12.358;2023-07-22T13:38:25;100101.66;;;26.24;39.60
15382;BME280;7789;51.364;12.358;2023-07-22T13:44:14;100094.28;;;26.20;40.67
15382;BME280;7789;51.364;12.358;2023-07-22T13:49:56;100092.31;;;26.15;40.11
15382;BME280;7789;51.364;12.358;2023-07-22T13:55:08;100082.28;;;26.11;40.64
15382;BME280;7789;51.364;12.358;2023-07-22T14:00:15;100080.16;;;26.13;39.56
15382;BME280;7789;51.364;12.358;2023-07-22T14:06:01;100072.97;;;26.13;38.85
15382;BME280;7789;51.364;12.358;2023-07-22T14:11:18;100072.13;;;26.13;38.84
15382;BME280;7789;51.364;12.358;2023-07-22T14:16:25;100061.53;;;26.06;38.73
15382;BME280;7789;51.364;12.358;2023-07-22T14:21:39;100060.13;;;26.04;37.91
15382;BME280;7789;51.364;12.358;2023-07-22T14:26:46;100060.59;;;25.89;38.70
15382;BME280;7789;51.364;12.358;2023-07-22T14:31:57;100062.16;;;25.79;38.34
15382;BME280;7789;51.364;12.358;2023-07-22T14:37:18;100055.47;;;25.88;37.91
15382;BME280;7789;51.364;12.358;2023-07-22T14:42:32;100054.25;;;25.84;38.21
15382;BME280;7789;51.364;12.358;2023-07-22T14:47:54;100050.06;;;25.76;38.35
15382;BME280;7789;51.364;12.358;2023-07-22T14:53:21;100042.13;;;25.70;38.75
15382;BME280;7789;51.364;12.358;2023-07-22T14:59:13;100031.72;;;25.62;38.64
15382;BME280;7789;51.364;12.358;2023-07-22T15:04:22;100028.47;;;25.60;39.34
15382;BME280;7789;51.364;12.358;2023-07-22T15:10:03;100027.56;;;25.54;37.81
15382;BME280;7789;51.364;12.358;2023-07-22T15:15:18;100028.69;;;25.47;39.73
15382;BME280;7789;51.364;12.358;2023-07-22T15:20:29;100020.19;;;25.38;37.63
15382;BME280;7789;51.364;12.358;2023-07-22T15:25:46;100025.66;;;25.43;39.02
15382;BME280;7789;51.364;12.358;2023-07-22T15:30:55;100021.47;;;25.47;39.14
15382;BME280;7789;51.364;12.358;2023-07-22T15:36:07;100020.19;;;25.50;39.16
15382;BME280;7789;51.364;12.358;2023-07-22T15:41:20;100029.75;;;25.46;38.54
15382;BME280;7789;51.364;12.358;2023-07-22T15:46:40;100018.41;;;25.44;38.40
15382;BME280;7789;51.364;12.358;2023-07-22T15:51:54;100014.72;;;25.45;38.50
15382;BME280;7789;51.364;12.358;2023-07-22T15:57:17;100014.25;;;25.48;39.27
15382;BME280;7789;51.364;12.358;2023-07-22T16:02:25;100016.59;;;25.56;40.01
15382;BME280;7789;51.364;12.358;2023-07-22T16:07:36;100010.06;;;25.52;39.12
15382;BME280;7789;51.364;12.358;2023-07-22T16:13:02;100012.63;;;25.47;39.31
15382;BME280;7789;51.364;12.358;2023-07-22T16:18:08;100003.06;;;25.39;39.81
15382;BME280;7789;51.364;12.358;2023-07-22T16:23:14;100002.00;;;25.29;38.89
15382;BME280;7789;51.364;12.358;2023-07-22T16:28:27;100006.88;;;25.32;39.49
15382;BME280;7789;51.364;12.358;2023-07-22T16:33:37;99995.81;;;25.28;39.58
15382;BME280;7789;51.364;12.358;2023-07-22T16:38:52;99991.63;;;25.32;39.59
15382;BME280;7789;51.364;12.358;2023-07-22T16:44:10;99983.13;;;25.35;39.58
15382;BME280;7789;51.364;12.358;2023-07-22T16:49:31;99981.97;;;25.31;39.36
15382;BME280;7789;51.364;12.358;2023-07-22T16:54:43;99975.97;;;25.18;38.96
15382;BME280;7789;51.364;12.358;2023-07-22T16:59:49;99975.09;;;25.06;39.45
15382;BME280;7789;51.364;12.358;2023-07-22T17:05:10;99973.34;;;25.00;39.94
15382;BME280;7789;51.364;12.358;2023-07-22T17:10:26;99980.63;;;24.93;39.97
15382;BME280;7789;51.364;12.358;2023-07-22T17:16:09;99964.59;;;24.93;40.36
15382;BME280;7789;51.364;12.358;2023-07-22T17:21:16;99961.78;;;24.88;40.06
15382;BME280;7789;51.364;12.358;2023-07-22T17:26:29;99966.56;;;24.86;40.71
15382;BME280;7789;51.364;12.358;2023-07-22T17:31:41;99963.28;;;24.84;40.39
15382;BME280;7789;51.364;12.358;2023-07-22T17:36:49;99955.72;;;24.81;40.66
15382;BME280;7789;51.364;12.358;2023-07-22T17:42:02;99953.25;;;24.79;40.30
15382;BME280;7789;51.364;12.358;2023-07-22T17:47:14;99952.19;;;24.69;40.54
15382;BME280;7789;51.364;12.358;2023-07-22T17:52:25;99948.41;;;24.59;40.85
15382;BME280;7789;51.364;12.358;2023-07-22T17:57:44;99949.97;;;24.48;40.80
15382;BME280;7789;51.364;12.358;2023-07-22T18:03:07;99941.19;;;24.41;42.18
15382;BME280;7789;51.364;12.358;2023-07-22T18:08:25;99930.16;;;24.38;40.87
15382;BME280;7789;51.364;12.358;2023-07-22T18:13:31;99945.69;;;24.29;41.51
15382;BME280;7789;51.364;12.358;2023-07-22T18:18:52;99938.84;;;24.15;42.18
15382;BME280;7789;51.364;12.358;2023-07-22T18:23:59;99944.31;;;24.02;43.02
15382;BME280;7789;51.364;12.358;2023-07-22T18:29:07;99935.41;;;23.90;43.47
15382;BME280;7789;51.364;12.358;2023-07-22T18:34:24;99933.66;;;23.78;43.13
15382;BME280;7789;51.364;12.358;2023-07-22T18:39:31;99933.38;;;23.68;43.74
15382;BME280;7789;51.364;12.358;2023-07-22T18:44:38;99925.22;;;23.56;43.86
15382;BME280;7789;51.364;12.358;2023-07-22T18:49:50;99935.00;;;23.44;45.43
15382;BME280;7789;51.364;12.358;2023-07-22T18:54:57;99939.22;;;23.34;45.55
15382;BME280;7789;51.364;12.358;2023-07-22T19:00:08;99936.00;;;23.25;46.23
15382;BME280;7789;51.364;12.358;2023-07-22T19:05:31;99940.38;;;23.13;46.92
15382;BME280;7789;51.364;12.358;2023-07-22T19:10:44;99942.66;;;23.03;47.80
15382;BME280;7789;51.364;12.358;2023-07-22T19:15:54;99940.91;;;22.91;47.11
15382;BME280;7789;51.364;12.358;2023-07-22T19:21:15;99943.44;;;22.79;47.79
15382;BME280;7789;51.364;12.358;2023-07-22T19:26:20;99953.75;;;22.69;47.77
15382;BME280;7789;51.364;12.358;2023-07-22T19:31:37;99958.94;;;22.58;49.05
15382;BME280;7789;51.364;12.358;2023-07-22T19:37:02;99939.31;;;22.46;49.74
15382;BME280;7789;51.364;12.358;2023-07-22T19:42:10;99945.72;;;22.32;49.34
15382;BME280;7789;51.364;12.358;2023-07-22T19:47:25;99940.41;;;22.26;49.79
15382;BME280;7789;51.364;12.358;2023-07-22T19:52:40;99946.56;;;22.20;50.01
15382;BME280;7789;51.364;12.358;2023-07-22T19:58:01;99939.84;;;22.11;50.44
15382;BME280;7789;51.364;12.358;2023-07-22T20:03:18;99934.13;;;22.01;50.72
15382;BME280;7789;51.364;12.358;2023-07-22T20:08:32;99938.44;;;21.95;51.30
15382;BME280;7789;51.364;12.358;2023-07-22T20:13:52;99942.34;;;21.86;51.37
15382;BME280;7789;51.364;12.358;2023-07-22T20:19:08;99951.38;;;21.79;52.54
15382;BME280;7789;51.364;12.358;2023-07-22T20:24:29;99949.13;;;21.69;52.66
15382;BME280;7789;51.364;12.358;2023-07-22T20:29:42;99947.47;;;21.62;52.91
15382;BME280;7789;51.364;12.358;2023-07-22T20:34:52;99939.50;;;21.55;53.32
15382;BME280;7789;51.364;12.358;2023-07-22T20:40:09;99944.41;;;21.58;54.10
15382;BME280;7789;51.364;12.358;2023-07-22T20:45:16;99953.22;;;21.59;54.38
15382;BME280;7789;51.364;12.358;2023-07-22T20:50:48;99941.97;;;21.50;54.70
15382;BME280;7789;51.364;12.358;2023-07-22T20:56:09;99932.94;;;21.45;55.44
15382;BME280;7789;51.364;12.358;2023-07-22T21:01:15;99937.06;;;21.34;55.69
15382;BME280;7789;51.364;12.358;2023-07-22T21:06:25;99931.31;;;21.31;56.37
15382;BME280;7789;51.364;12.358;2023-07-22T21:11:35;99928.25;;;21.27;56.95
15382;BME280;7789;51.364;12.358;2023-07-22T21:16:49;99931.13;;;21.19;57.55
15382;BME280;7789;51.364;12.358;2023-07-22T21:27:48;99920.28;;;21.08;58.92
15382;BME280;7789;51.364;12.358;2023-07-22T21:32:58;99921.06;;;21.02;59.08
15382;BME280;7789;51.364;12.358;2023-07-22T21:38:08;99918.19;;;20.97;59.52
15382;BME280;7789;51.364;12.358;2023-07-22T21:43:22;99919.63;;;20.93;60.40
15382;BME280;7789;51.364;12.358;2023-07-22T21:48:32;99916.97;;;20.86;60.86
15382;BME280;7789;51.364;12.358;2023-07-22T21:53:41;99915.50;;;20.77;60.99
15382;BME280;7789;51.364;12.358;2023-07-22T21:58:55;99913.44;;;20.73;61.89
15382;BME280;7789;51.364;12.358;2023-07-22T22:04:03;99910.94;;;20.65;62.27
15382;BME280;7789;51.364;12.358;2023-07-22T22:09:12;99914.00;;;20.62;62.67
15382;BME280;7789;51.364;12.358;2023-07-22T22:14:27;99912.16;;;20.56;63.54
15382;BME280;7789;51.364;12.358;2023-07-22T22:19:38;99904.59;;;20.53;63.74
15382;BME280;7789;51.364;12.358;2023-07-22T22:24:45;99916.00;;;20.47;64.27
15382;BME280;7789;51.364;12.358;2023-07-22T22:29:52;99902.72;;;20.41;64.30
15382;BME280;7789;51.364;12.358;2023-07-22T22:35:11;99902.50;;;20.36;63.96
15382;BME280;7789;51.364;12.358;2023-07-22T22:40:44;99903.09;;;20.31;64.23
15382;BME280;7789;51.364;12.358;2023-07-22T22:45:55;99906.53;;;20.25;64.98
15382;BME280;7789;51.364;12.358;2023-07-22T22:51:06;99900.00;;;20.21;65.24
15382;BME280;7789;51.364;12.358;2023-07-22T22:56:30;99900.78;;;20.15;65.78
15382;BME280;7789;51.364;12.358;2023-07-22T23:01:44;99895.06;;;20.12;65.91
15382;BME280;7789;51.364;12.358;2023-07-22T23:07:03;99880.34;;;20.09;66.44
15382;BME280;7789;51.364;12.358;2023-07-22T23:12:15;99888.69;;;20.06;66.40
15382;BME280;7789;51.364;12.358;2023-07-22T23:17:23;99887.06;;;20.05;67.24
15382;BME280;7789;51.364;12.358;2023-07-22T23:22:41;99886.22;;;20.05;67.72
15382;BME280;7789;51.364;12.358;2023-07-22T23:27:48;99881.13;;;20.03;67.69
15382;BME280;7789;51.364;12.358;2023-07-22T23:32:59;99882.97;;;20.03;68.09
15382;BME280;7789;51.364;12.358;2023-07-22T23:38:14;99876.84;;;20.02;68.11
15382;BME280;7789;51.364;12.358;2023-07-22T23:43:20;99864.94;;;19.98;68.06
15382;BME280;7789;51.364;12.358;2023-07-22T23:48:32;99877.97;;;19.93;69.01
15382;BME280;7789;51.364;12.358;2023-07-22T23:53:44;99860.81;;;19.89;68.65
15382;BME280;7789;51.364;12.358;2023-07-22T23:58:53;99864.28;;;19.83;69.17
